Cairo, Missouri
Current Conditions -  °F | °C
As of 11:15 AM on Sunday 23 Nov 2014 (Local Time) from KVER Reporting Station
Light Rain Light Rain  
Wind Chill: 56°   Ceiling: 800
Heat Index: 56°   Visibility: 7mi
Dew Point: 55°   Wind: 13mph
Humidity: 97%   Direction: 140°SE
Pressure: 29.47"   Gusts: 17mph
Location:  39.51°N, 92.44°W
Report Text: KVER 231715Z AUTO 14011G15KT 7SM -RA OVC008 13/13 A2947 RMK AO2 T01310127
Loading
Personal Weather Stations






























Interactive Weather Map New forecast layout! Learn more

10-Day Weather Forecast

Advertisements
Track Severe Weather on mobile